createdAt,value
2018-05-13T00:01:01.072Z,25.87
2018-05-13T00:03:28.549Z,27.10
2018-05-13T00:05:56.024Z,25.13
2018-05-13T00:08:23.524Z,27.33
2018-05-13T00:10:51.083Z,29.47
2018-05-13T00:13:18.505Z,27.23
2018-05-13T00:15:45.974Z,29.10
2018-05-13T00:18:13.475Z,29.63
2018-05-13T00:20:40.953Z,29.00
2018-05-13T00:23:08.419Z,27.03
2018-05-13T00:25:35.915Z,30.57
2018-05-13T00:28:03.379Z,27.60
2018-05-13T00:30:30.864Z,29.23
2018-05-13T00:32:58.346Z,28.17
2018-05-13T00:35:25.828Z,27.97
2018-05-13T00:37:53.311Z,29.37
2018-05-13T00:40:20.791Z,32.23
2018-05-13T00:42:48.255Z,34.60
2018-05-13T00:45:15.723Z,28.60
2018-05-13T00:47:43.214Z,27.03
2018-05-13T00:50:10.680Z,26.37
2018-05-13T00:52:38.173Z,27.43
2018-05-13T00:55:05.648Z,30.20
2018-05-13T00:57:33.134Z,33.80
2018-05-13T01:00:00.593Z,28.42
2018-05-13T01:02:28.148Z,25.23
2018-05-13T01:04:55.572Z,30.17
2018-05-13T01:07:23.049Z,30.57
2018-05-13T01:09:50.532Z,30.23
2018-05-13T01:12:18.004Z,30.93
2018-05-13T01:14:45.483Z,34.95
2018-05-13T01:17:12.951Z,28.85
2018-05-13T01:19:40.799Z,44.87
2018-05-13T01:22:08.271Z,35.70
2018-05-13T01:24:35.769Z,32.45
2018-05-13T01:27:03.240Z,43.63
2018-05-13T01:29:30.800Z,32.47
2018-05-13T01:31:58.304Z,42.87
2018-05-13T01:34:25.768Z,32.87
2018-05-13T01:36:53.336Z,36.50
2018-05-13T01:39:20.808Z,31.83
2018-05-13T01:41:48.319Z,33.83
2018-05-13T01:44:15.784Z,33.10
2018-05-13T01:46:43.280Z,38.33
2018-05-13T01:49:10.746Z,32.30
2018-05-13T01:51:38.216Z,33.27
2018-05-13T01:54:05.712Z,29.60
2018-05-13T01:56:34.186Z,38.95
2018-05-13T01:59:01.675Z,34.77
2018-05-13T02:01:29.153Z,34.27
2018-05-13T02:03:56.637Z,34.08
2018-05-13T02:06:24.096Z,34.60
2018-05-13T02:08:51.563Z,43.13
2018-05-13T02:11:19.055Z,37.05
2018-05-13T02:13:46.516Z,34.03
2018-05-13T02:16:14.000Z,33.67
2018-05-13T02:18:41.477Z,37.07
2018-05-13T02:21:08.976Z,36.35
2018-05-13T02:23:36.455Z,36.47
2018-05-13T02:26:04.220Z,44.53
2018-05-13T02:28:32.618Z,38.30
2018-05-13T02:31:00.123Z,36.47
2018-05-13T02:33:27.744Z,39.47
2018-05-13T02:35:55.219Z,44.83
2018-05-13T02:38:22.708Z,37.33
2018-05-13T02:40:50.172Z,38.92
2018-05-13T02:43:17.664Z,40.80
2018-05-13T02:45:45.141Z,40.67
2018-05-13T02:48:12.617Z,41.17
2018-05-13T02:50:41.091Z,36.45
2018-05-13T02:53:08.565Z,38.70
2018-05-13T02:55:36.056Z,41.07
2018-05-13T02:58:03.528Z,43.27
2018-05-13T03:00:31.017Z,49.10
2018-05-13T03:02:58.485Z,47.37
2018-05-13T03:05:25.956Z,48.13
2018-05-13T03:07:53.451Z,49.28
2018-05-13T03:10:20.919Z,49.22
2018-05-13T03:12:48.414Z,47.20
2018-05-13T03:15:15.894Z,79.57
2018-05-13T03:17:43.391Z,50.27
2018-05-13T03:20:10.860Z,54.43
2018-05-13T03:22:38.337Z,51.07
2018-05-13T03:25:06.084Z,55.20
2018-05-13T03:27:33.556Z,54.57
2018-05-13T03:30:01.045Z,57.77
2018-05-13T03:32:28.516Z,53.13
2018-05-13T03:34:56.236Z,55.15
2018-05-13T03:37:23.740Z,53.83
2018-05-13T03:39:51.223Z,67.23
2018-05-13T03:42:18.719Z,59.97
2018-05-13T03:44:46.201Z,63.03
2018-05-13T03:47:13.689Z,54.70
2018-05-13T03:49:41.169Z,56.90
2018-05-13T03:52:08.639Z,59.35
2018-05-13T03:54:36.124Z,53.27
2018-05-13T03:57:03.601Z,53.50
2018-05-13T03:59:31.089Z,49.13
2018-05-13T04:01:58.568Z,55.33
2018-05-13T04:04:26.041Z,52.00
2018-05-13T04:06:53.524Z,52.73
2018-05-13T04:09:32.797Z,50.90
2018-05-13T04:12:11.895Z,48.80
2018-05-13T04:14:52.055Z,51.20
2018-05-13T04:17:19.525Z,48.17
2018-05-13T04:19:46.996Z,48.97
2018-05-13T04:22:14.488Z,49.25
2018-05-13T04:24:41.955Z,49.90
2018-05-13T04:27:09.451Z,50.57
2018-05-13T04:29:36.920Z,47.33
2018-05-13T04:32:04.420Z,53.23
2018-05-13T04:34:31.886Z,46.33
2018-05-13T04:36:59.352Z,41.70
2018-05-13T04:39:26.831Z,51.40
2018-05-13T04:41:54.460Z,43.70
2018-05-13T04:44:21.949Z,42.88
2018-05-13T04:46:49.415Z,44.80
2018-05-13T04:49:16.911Z,42.00
2018-05-13T04:51:44.388Z,40.03
2018-05-13T04:54:11.863Z,50.12
2018-05-13T04:56:39.353Z,42.47
2018-05-13T04:59:06.821Z,38.08
2018-05-13T05:01:34.311Z,49.00
2018-05-13T05:04:01.787Z,36.25
2018-05-13T05:06:29.274Z,45.43
2018-05-13T05:08:56.798Z,37.27
2018-05-13T05:11:24.326Z,42.13
2018-05-13T05:13:51.757Z,38.70
2018-05-13T05:16:19.246Z,35.53
2018-05-13T05:18:46.716Z,38.03
2018-05-13T05:21:14.191Z,41.28
2018-05-13T05:23:41.673Z,34.27
2018-05-13T05:26:09.148Z,32.60
2018-05-13T05:28:36.641Z,32.03
2018-05-13T05:31:04.109Z,32.70
2018-05-13T05:33:31.596Z,36.70
2018-05-13T05:35:59.069Z,30.73
2018-05-13T05:38:26.540Z,31.17
2018-05-13T05:40:54.020Z,29.73
2018-05-13T05:43:21.492Z,36.30
2018-05-13T05:45:49.215Z,32.00
2018-05-13T05:48:16.693Z,29.37
2018-05-13T05:50:44.204Z,35.92
2018-05-13T05:53:11.669Z,28.90
2018-05-13T05:55:39.142Z,37.53
2018-05-13T05:58:06.635Z,30.17
2018-05-13T06:00:34.108Z,27.80
2018-05-13T06:03:01.589Z,28.13
2018-05-13T06:05:29.066Z,27.20
2018-05-13T06:07:56.561Z,38.40
2018-05-13T06:10:24.034Z,26.00
2018-05-13T06:12:51.520Z,25.50
2018-05-13T06:15:18.995Z,24.37
2018-05-13T06:17:46.465Z,27.37
2018-05-13T06:20:13.962Z,25.13
2018-05-13T06:22:41.442Z,27.03
2018-05-13T06:25:09.434Z,24.33
2018-05-13T06:27:36.826Z,22.83
2018-05-13T06:30:04.382Z,22.77
2018-05-13T06:32:32.135Z,23.53
2018-05-13T06:34:59.641Z,26.90
2018-05-13T06:37:27.103Z,27.60
2018-05-13T06:39:54.577Z,24.57
2018-05-13T06:42:22.059Z,24.20
2018-05-13T06:44:49.522Z,30.17
2018-05-13T06:47:17.011Z,22.92
2018-05-13T06:49:44.484Z,23.70
2018-05-13T06:52:11.987Z,25.30
2018-05-13T06:54:39.551Z,23.80
2018-05-13T06:57:07.008Z,22.87
2018-05-13T06:59:34.489Z,20.60
2018-05-13T07:02:02.045Z,28.00
2018-05-13T07:04:29.614Z,31.37
2018-05-13T07:06:57.232Z,22.50
2018-05-13T07:09:24.950Z,27.90
2018-05-13T07:11:52.428Z,20.27
2018-05-13T07:14:19.942Z,22.23
2018-05-13T07:16:47.412Z,25.27
2018-05-13T07:19:15.688Z,20.88
2018-05-13T07:21:43.541Z,20.53
2018-05-13T07:24:11.000Z,24.13
2018-05-13T07:26:38.487Z,24.52
2018-05-13T07:29:05.948Z,18.43
2018-05-13T07:31:33.434Z,28.97
2018-05-13T07:34:00.893Z,22.10
2018-05-13T07:36:28.368Z,19.48
2018-05-13T07:38:55.855Z,21.40
2018-05-13T07:41:23.349Z,39.28
2018-05-13T07:43:50.898Z,18.53
2018-05-13T07:46:19.117Z,20.30
2018-05-13T07:48:46.577Z,23.63
2018-05-13T07:51:14.048Z,17.63
2018-05-13T07:53:41.516Z,20.27
2018-05-13T07:56:08.995Z,22.63
2018-05-13T07:58:36.463Z,20.52
2018-05-13T08:01:03.937Z,16.62
2018-05-13T08:03:31.432Z,16.17
2018-05-13T08:05:58.899Z,17.53
2018-05-13T08:08:26.559Z,16.30
2018-05-13T08:10:54.030Z,16.77
2018-05-13T08:13:21.505Z,17.33
2018-05-13T08:15:49.011Z,19.10
2018-05-13T08:18:16.476Z,30.40
2018-05-13T08:20:43.959Z,23.47
2018-05-13T08:23:11.423Z,16.53
2018-05-13T08:25:38.909Z,16.73
2018-05-13T08:28:06.383Z,15.03
2018-05-13T08:30:33.851Z,17.30
2018-05-13T08:33:01.677Z,20.27
2018-05-13T08:35:29.173Z,15.23
2018-05-13T08:37:56.672Z,17.53
2018-05-13T08:40:24.823Z,17.63
2018-05-13T08:42:52.316Z,26.63
2018-05-13T08:45:19.774Z,13.57
2018-05-13T08:47:47.260Z,13.23
2018-05-13T08:50:14.739Z,13.37
2018-05-13T08:52:42.228Z,13.83
2018-05-13T08:55:09.711Z,14.37
2018-05-13T08:57:37.175Z,14.07
2018-05-13T09:00:04.663Z,12.80
2018-05-13T09:02:32.151Z,13.57
2018-05-13T09:04:59.606Z,10.87
2018-05-13T09:07:27.188Z,11.15
2018-05-13T09:09:54.651Z,14.00
2018-05-13T09:12:22.156Z,12.57
2018-05-13T09:14:49.619Z,28.12
2018-05-13T09:17:17.082Z,11.83
2018-05-13T09:19:44.555Z,9.73
2018-05-13T09:22:12.020Z,9.70
2018-05-13T09:24:39.503Z,11.03
2018-05-13T09:27:06.966Z,13.83
2018-05-13T09:29:34.423Z,10.65
2018-05-13T09:32:02.077Z,10.18
2018-05-13T09:34:29.536Z,15.33
2018-05-13T09:36:57.027Z,10.20
2018-05-13T09:39:24.503Z,14.33
2018-05-13T09:41:52.084Z,10.85
2018-05-13T09:44:19.556Z,11.17
2018-05-13T09:46:47.012Z,9.73
2018-05-13T09:49:14.504Z,10.40
2018-05-13T09:51:41.959Z,11.93
2018-05-13T09:54:09.404Z,7.77
2018-05-13T09:56:36.888Z,8.25
2018-05-13T09:59:04.365Z,7.80
2018-05-13T10:01:31.858Z,12.10
2018-05-13T10:03:59.412Z,24.53
2018-05-13T10:06:26.809Z,11.20
2018-05-13T10:08:54.281Z,8.70
2018-05-13T10:11:21.744Z,10.37
2018-05-13T10:13:49.236Z,11.87
2018-05-13T10:16:16.715Z,9.63
2018-05-13T10:18:44.167Z,7.93
2018-05-13T10:21:11.675Z,8.13
2018-05-13T10:23:39.572Z,9.93
2018-05-13T10:26:07.052Z,9.13
2018-05-13T10:28:34.515Z,8.67
2018-05-13T10:31:01.985Z,8.60
2018-05-13T10:33:29.471Z,9.37
2018-05-13T10:35:56.953Z,11.38
2018-05-13T10:38:24.425Z,7.57
2018-05-13T10:40:51.875Z,6.87
2018-05-13T10:43:19.342Z,8.70
2018-05-13T10:45:46.830Z,11.80
2018-05-13T10:48:14.289Z,7.53
2018-05-13T10:50:41.764Z,7.77
2018-05-13T10:53:09.225Z,7.77
2018-05-13T10:55:36.679Z,11.33
2018-05-13T10:58:04.145Z,7.33
2018-05-13T11:00:31.600Z,6.80
2018-05-13T11:02:59.063Z,7.22
2018-05-13T11:05:26.571Z,7.03
2018-05-13T11:07:54.039Z,9.43
2018-05-13T11:10:21.614Z,13.70
2018-05-13T11:12:49.042Z,9.13
2018-05-13T11:15:16.506Z,7.10
2018-05-13T11:17:43.978Z,6.90
2018-05-13T11:20:11.473Z,7.13
2018-05-13T11:22:38.944Z,9.63
2018-05-13T11:25:06.412Z,13.93
2018-05-13T11:27:33.880Z,7.60
2018-05-13T11:30:01.361Z,7.23
2018-05-13T11:32:28.821Z,8.27
2018-05-13T11:34:56.300Z,9.40
2018-05-13T11:37:23.759Z,8.37
2018-05-13T11:39:51.276Z,12.20
2018-05-13T11:42:18.722Z,5.30
2018-05-13T11:44:46.182Z,5.97
2018-05-13T11:47:13.671Z,5.00
2018-05-13T11:49:41.137Z,5.13
2018-05-13T11:52:08.640Z,4.70
2018-05-13T11:54:36.110Z,5.40
2018-05-13T11:57:03.567Z,6.47
2018-05-13T11:59:31.042Z,5.80
2018-05-13T12:01:58.503Z,5.43
2018-05-13T12:04:25.980Z,4.87
2018-05-13T12:06:53.435Z,5.67
2018-05-13T12:09:20.887Z,5.80
2018-05-13T12:11:48.358Z,5.77
2018-05-13T12:14:15.820Z,5.30
2018-05-13T12:16:43.293Z,4.40
2018-05-13T12:19:10.759Z,4.95
2018-05-13T12:21:38.220Z,5.07
2018-05-13T12:24:05.695Z,5.47
2018-05-13T12:26:33.151Z,5.90
2018-05-13T12:29:00.712Z,5.57
2018-05-13T12:31:28.111Z,4.53
2018-05-13T12:33:55.601Z,4.40
2018-05-13T12:36:23.087Z,4.83
2018-05-13T12:38:50.545Z,4.10
2018-05-13T12:41:18.181Z,4.37
2018-05-13T12:43:45.636Z,5.33
2018-05-13T12:46:13.096Z,3.90
2018-05-13T12:48:40.585Z,4.30
2018-05-13T12:51:08.053Z,6.97
2018-05-13T12:53:35.522Z,5.37
2018-05-13T12:56:02.976Z,5.07
2018-05-13T12:58:30.538Z,6.50
2018-05-13T13:00:57.947Z,4.70
2018-05-13T13:03:25.400Z,6.17
2018-05-13T13:05:52.879Z,6.50
2018-05-13T13:08:20.351Z,6.20
2018-05-13T13:10:47.826Z,8.00
2018-05-13T13:13:15.301Z,5.97
2018-05-13T13:15:42.751Z,6.30
2018-05-13T13:18:10.237Z,6.87
2018-05-13T13:20:37.697Z,6.43
2018-05-13T13:23:05.163Z,7.68
2018-05-13T13:25:32.645Z,7.00
2018-05-13T13:28:00.125Z,7.73
2018-05-13T13:30:27.715Z,8.40
2018-05-13T13:32:55.073Z,9.90
2018-05-13T13:35:22.544Z,8.52
2018-05-13T13:37:50.021Z,7.30
2018-05-13T13:40:17.481Z,6.67
2018-05-13T13:42:44.954Z,7.47
2018-05-13T13:45:12.419Z,7.13
2018-05-13T13:47:39.884Z,8.27
2018-05-13T13:50:07.369Z,7.47
2018-05-13T13:52:34.827Z,8.73
2018-05-13T13:55:02.327Z,7.50
2018-05-13T13:57:29.808Z,8.73
2018-05-13T13:59:57.271Z,8.83
2018-05-13T14:02:24.760Z,10.30
2018-05-13T14:04:52.227Z,10.70
2018-05-13T14:07:19.697Z,8.77
2018-05-13T14:09:47.148Z,8.63
2018-05-13T14:12:14.620Z,10.05
2018-05-13T14:14:42.083Z,13.73
2018-05-13T14:17:10.130Z,11.07
2018-05-13T14:19:37.609Z,24.87
2018-05-13T14:22:05.064Z,9.93
2018-05-13T14:24:32.541Z,10.20
2018-05-13T14:27:00.020Z,13.23
2018-05-13T14:29:29.611Z,9.33
2018-05-13T14:31:57.086Z,8.93
2018-05-13T14:34:24.541Z,10.27
2018-05-13T14:36:52.015Z,13.17
2018-05-13T14:39:19.498Z,8.43
2018-05-13T14:41:46.992Z,14.60
2018-05-13T14:44:14.552Z,8.57
2018-05-13T14:46:42.032Z,11.37
2018-05-13T14:49:09.523Z,9.00
2018-05-13T14:51:36.995Z,10.50
2018-05-13T14:54:04.476Z,9.90
2018-05-13T14:56:31.933Z,9.33
2018-05-13T14:58:59.384Z,9.10
2018-05-13T15:01:26.874Z,8.97
2018-05-13T15:03:54.356Z,9.13
2018-05-13T15:06:21.834Z,9.00
2018-05-13T15:08:49.301Z,14.53
2018-05-13T15:11:16.778Z,9.20
2018-05-13T15:13:44.337Z,15.00
2018-05-13T15:16:11.797Z,19.93
2018-05-13T15:18:39.288Z,8.60
2018-05-13T15:21:06.749Z,7.50
2018-05-13T15:23:34.221Z,12.80
2018-05-13T15:26:01.706Z,16.77
2018-05-13T15:28:29.180Z,30.85
2018-05-13T15:30:56.690Z,7.20
2018-05-13T15:33:24.161Z,8.20
2018-05-13T15:35:51.611Z,8.53
2018-05-13T15:38:19.081Z,13.30
2018-05-13T15:40:46.544Z,10.67
2018-05-13T15:43:14.168Z,9.83
2018-05-13T15:45:41.636Z,9.13
2018-05-13T15:48:09.109Z,7.27
2018-05-13T15:50:36.605Z,8.83
2018-05-13T15:53:04.553Z,6.80
2018-05-13T15:55:32.029Z,7.90
2018-05-13T15:57:59.495Z,9.90
2018-05-13T16:00:26.964Z,11.10
2018-05-13T16:02:54.445Z,6.60
2018-05-13T16:05:21.996Z,6.83
2018-05-13T16:07:49.479Z,8.30
2018-05-13T16:10:16.934Z,12.00
2018-05-13T16:12:44.416Z,6.90
2018-05-13T16:15:11.888Z,16.70
2018-05-13T16:17:39.340Z,7.65
2018-05-13T16:20:06.843Z,10.80
2018-05-13T16:22:34.295Z,16.27
2018-05-13T16:25:01.781Z,7.77
2018-05-13T16:27:29.242Z,9.77
2018-05-13T16:29:56.728Z,7.93
2018-05-13T16:32:24.237Z,9.90
2018-05-13T16:34:51.709Z,7.00
2018-05-13T16:37:19.224Z,16.97
2018-05-13T16:39:46.711Z,10.37
2018-05-13T16:42:14.168Z,10.98
2018-05-13T16:44:41.653Z,13.40
2018-05-13T16:47:09.119Z,10.77
2018-05-13T16:49:36.814Z,7.90
2018-05-13T16:52:04.277Z,8.33
2018-05-13T16:54:31.753Z,16.73
2018-05-13T16:56:59.506Z,6.70
2018-05-13T16:59:27.370Z,8.63
2018-05-13T17:01:54.864Z,9.40
2018-05-13T17:04:22.332Z,7.80
2018-05-13T17:06:49.795Z,15.60
2018-05-13T17:09:17.365Z,8.27
2018-05-13T17:11:44.753Z,9.60
2018-05-13T17:14:12.696Z,10.27
2018-05-13T17:16:40.155Z,7.23
2018-05-13T17:19:07.867Z,10.13
2018-05-13T17:21:35.352Z,14.10
2018-05-13T17:24:02.911Z,13.47
2018-05-13T17:26:30.884Z,14.77
2018-05-13T17:28:58.516Z,7.50
2018-05-13T17:31:25.971Z,8.60
2018-05-13T17:33:54.185Z,8.80
2018-05-13T17:36:21.638Z,8.07
2018-05-13T17:38:50.287Z,10.43
2018-05-13T17:41:17.858Z,11.83
2018-05-13T17:43:45.325Z,10.35
2018-05-13T17:46:12.797Z,8.30
2018-05-13T17:48:40.507Z,6.77
2018-05-13T17:51:08.620Z,21.83
2018-05-13T17:53:36.190Z,19.93
2018-05-13T17:56:03.656Z,8.20
2018-05-13T17:58:31.954Z,8.23
2018-05-13T18:00:59.445Z,9.93
2018-05-13T18:03:26.939Z,9.73
2018-05-13T18:05:54.399Z,13.60
2018-05-13T18:08:22.192Z,27.37
2018-05-13T18:10:49.664Z,25.00
2018-05-13T18:13:17.708Z,11.10
2018-05-13T18:15:45.760Z,11.43
2018-05-13T18:18:13.736Z,10.13
2018-05-13T18:20:42.588Z,10.33
2018-05-13T18:23:10.061Z,18.60
2018-05-13T18:25:37.541Z,11.90
2018-05-13T18:28:05.009Z,9.65
2018-05-13T18:30:33.090Z,17.08
2018-05-13T18:33:00.555Z,23.55
2018-05-13T18:35:28.024Z,8.60
2018-05-13T18:37:55.491Z,10.27
2018-05-13T18:40:23.522Z,10.00
2018-05-13T18:42:51.008Z,13.85
2018-05-13T18:45:18.468Z,9.43
2018-05-13T18:47:45.941Z,8.23
2018-05-13T18:50:13.741Z,32.03
2018-05-13T18:52:41.209Z,12.00
2018-05-13T18:55:08.939Z,9.87
2018-05-13T18:57:36.403Z,11.30
2018-05-13T19:00:04.157Z,11.13
2018-05-13T19:02:31.731Z,9.27
2018-05-13T19:04:59.191Z,9.63
2018-05-13T19:07:26.675Z,11.83
2018-05-13T19:09:54.865Z,11.20
2018-05-13T19:12:22.358Z,9.63
2018-05-13T19:14:49.817Z,23.33
2018-05-13T19:17:17.278Z,8.37
2018-05-13T19:19:45.067Z,8.50
2018-05-13T19:22:12.520Z,8.23
2018-05-13T19:24:40.056Z,9.13
2018-05-13T19:27:07.488Z,10.73
2018-05-13T19:29:35.320Z,15.23
2018-05-13T19:32:02.940Z,11.60
2018-05-13T19:34:30.407Z,13.03
2018-05-13T19:36:57.869Z,13.82
2018-05-13T19:39:25.950Z,17.23
2018-05-13T19:41:53.415Z,15.17
2018-05-13T19:44:20.900Z,10.53
2018-05-13T19:46:48.368Z,16.27
2018-05-13T19:49:15.823Z,8.67
2018-05-13T19:51:43.937Z,8.97
2018-05-13T19:54:11.774Z,11.13
2018-05-13T19:56:39.465Z,13.23
2018-05-13T19:59:06.924Z,24.43
2018-05-13T20:01:34.387Z,10.10
2018-05-13T20:04:01.877Z,13.35
2018-05-13T20:06:29.359Z,10.97
2018-05-13T20:08:57.094Z,11.10
2018-05-13T20:11:24.568Z,8.50
2018-05-13T20:13:52.033Z,10.43
2018-05-13T20:16:19.509Z,8.20
2018-05-13T20:18:46.967Z,13.30
2018-05-13T20:21:14.492Z,13.33
2018-05-13T20:23:41.935Z,8.47
2018-05-13T20:26:09.392Z,8.57
2018-05-13T20:28:36.876Z,8.77
2018-05-13T20:31:04.343Z,10.23
2018-05-13T20:33:31.819Z,16.27
2018-05-13T20:35:59.372Z,10.13
2018-05-13T20:38:26.760Z,17.93
2018-05-13T20:40:54.235Z,8.10
2018-05-13T20:43:21.693Z,7.73
2018-05-13T20:45:49.170Z,15.30
2018-05-13T20:48:16.624Z,10.45
2018-05-13T20:50:44.150Z,17.50
2018-05-13T20:53:11.630Z,9.80
2018-05-13T20:55:39.150Z,12.60
2018-05-13T20:58:06.869Z,17.90
2018-05-13T21:00:34.327Z,11.13
2018-05-13T21:03:01.836Z,12.00
2018-05-13T21:05:29.299Z,9.10
2018-05-13T21:07:56.761Z,9.13
2018-05-13T21:10:24.259Z,14.82
2018-05-13T21:12:51.907Z,9.07
2018-05-13T21:15:19.407Z,7.80
2018-05-13T21:17:46.859Z,8.57
2018-05-13T21:20:14.334Z,24.55
2018-05-13T21:22:41.824Z,16.30
2018-05-13T21:25:09.397Z,8.50
2018-05-13T21:27:36.880Z,9.23
2018-05-13T21:30:04.418Z,10.27
2018-05-13T21:32:31.900Z,13.83
2018-05-13T21:34:59.375Z,10.07
2018-05-13T21:37:26.833Z,7.37
2018-05-13T21:39:54.614Z,7.37
2018-05-13T21:42:22.071Z,8.73
2018-05-13T21:44:49.540Z,9.93
2018-05-13T21:47:17.018Z,8.10
2018-05-13T21:49:44.471Z,9.10
2018-05-13T21:52:11.981Z,8.80
2018-05-13T21:54:39.478Z,7.47
2018-05-13T21:57:06.918Z,8.70
2018-05-13T21:59:34.405Z,7.73
2018-05-13T22:02:01.866Z,11.37
2018-05-13T22:04:29.356Z,8.83
2018-05-13T22:06:56.830Z,11.17
2018-05-13T22:09:24.287Z,11.93
2018-05-13T22:11:51.903Z,8.23
2018-05-13T22:14:19.365Z,9.73
2018-05-13T22:16:46.840Z,8.10
2018-05-13T22:19:14.292Z,9.47
2018-05-13T22:21:41.752Z,8.87
2018-05-13T22:24:09.228Z,8.03
2018-05-13T22:26:36.700Z,8.00
2018-05-13T22:29:04.196Z,7.65
2018-05-13T22:31:31.659Z,10.23
2018-05-13T22:33:59.120Z,10.03
2018-05-13T22:36:26.655Z,12.43
2018-05-13T22:38:54.344Z,8.10
2018-05-13T22:41:21.832Z,7.12
2018-05-13T22:43:49.287Z,7.60
2018-05-13T22:46:16.756Z,8.77
2018-05-13T22:48:44.235Z,10.43
2018-05-13T22:51:11.700Z,10.40
2018-05-13T22:53:39.170Z,8.00
2018-05-13T22:56:06.641Z,15.43
2018-05-13T22:58:34.128Z,8.07
2018-05-13T23:01:01.591Z,10.60
2018-05-13T23:03:29.048Z,8.00
2018-05-13T23:05:56.544Z,9.10
2018-05-13T23:08:23.999Z,8.67
2018-05-13T23:10:51.476Z,7.90
2018-05-13T23:13:18.932Z,7.63
2018-05-13T23:15:46.397Z,9.60
2018-05-13T23:18:13.872Z,7.47
2018-05-13T23:20:41.337Z,8.73
2018-05-13T23:23:08.813Z,10.00
2018-05-13T23:25:36.264Z,9.80
2018-05-13T23:28:03.744Z,7.63
2018-05-13T23:30:31.304Z,13.80
2018-05-13T23:32:58.752Z,6.90
2018-05-13T23:35:26.232Z,8.30
2018-05-13T23:37:53.690Z,6.70
2018-05-13T23:40:21.171Z,12.67
2018-05-13T23:42:48.623Z,5.97
2018-05-13T23:45:16.076Z,6.97
2018-05-13T23:47:43.554Z,6.50
2018-05-13T23:50:11.013Z,7.00
2018-05-13T23:52:38.484Z,7.17
2018-05-13T23:55:05.936Z,5.73
2018-05-13T23:57:33.597Z,6.27
